Terminal Aerodrome Forecast
Issued by NWS Sterling, VA

Current Version | Previous Version | Graphics & Text | Print | Product List | Glossary Off
Versions: 1 2 3 4 5 6 7 8 9 10 11 12 13 14 15 16 17 18 19 20 21

000
FTUS41 KLWX 231100
TAFDCA
TAF
KDCA 231139Z 2312/2412 32014G23KT P6SM SCT060
     FM231300 31019G33KT P6SM SCT060
     FM232200 32014G25KT P6SM SKC
     FM240400 31011G18KT P6SM SKC=

USA.gov is the U.S. government's official web portal to all federal, state and local government web resources and services.